الصفحة الرئيسية
METAR-TAF:

METAR-TAF

مطار :

Wink, تكساس, الولايات المتحدة

دائرة عرض: 31-46-47N, خط طول: 103-12-05W, ارتفاع: 860 متر

مراقبة الطقس الحالي

تاريخ ووقت الإصدار 1ساعة و 6 دقيقة قبل الساعة 08:53UTC
ريح 12 عقدة من الشرق/الجنوب الشرقي
درجة الحرارة 13°درجة مئوية
الرطوبة 77%
ضغط 1017 hPa
الرؤية: 16.1 كم
غيوم قليلة على ارتفاع 11000 قدم

METAR: KINK 220853Z AUTO 11012KT 10SM FEW110 13/09 A3003 RMK AO2 SLP142 T01280094 58018

زمن: 04:59 (09:59 UTC)

توقعات

تاريخ ووقت الإصدار 4ساعات و 38 دقيقة قبل الساعة 05:21UTC
التوقعات صالحة من22 الساعة 06 UTC إلى 23 الساعة 06 UTC
ريح 11 عقدة من الشرق/الجنوب الشرقي
الرؤية: 10 كم
غيوم مفككة على ارتفاع 4000 قدم
من 22 الساعة 1200 UTC
ريح 11 عقدة من الجنوب الشرقي
الرؤية: 10 كم
ملبد بالغيوم على ارتفاع 2500 قدم
من 22 الساعة 1600 UTC
ريح 11 عقدة من الجنوب
الرؤية: 10 كم
غيوم مفككة على ارتفاع 10000 قدم

TAF: KINK 220521Z 2206/2306 12011KT P6SM BKN040 FM221200 13011KT P6SM OVC025 FM221600 17011KT P6SM BKN100

أرصاد الطقس والتوقعات من أكثر من 4000 مطار (تقارير الطقس للمطار METAR والتنبؤ بالطقس بالمطارTAF).

المحطات المتاحة هي النقط الصفراء والحمراء على الخريطة.

حرك المؤشر فوق النقطة لمعرفة اسم المحطة.

ثم انقر لمعرفة أرصاد وتوقعات الطقس.

لتغيير الخارطة: اضغط على الأزرار الخضراء مع رمز الصليب الأسود للتكبير. على الزر الأخضر مع شرطة للتصغير، أو على الأسهم الخضراء للخرائط المجاورة.


METAR-TAF: